createdAt,value
2018-12-14T00:00:05.582Z,4.63
2018-12-14T00:02:41.058Z,4.93
2018-12-14T00:05:17.126Z,4.40
2018-12-14T00:07:56.475Z,4.97
2018-12-14T00:10:36.931Z,5.00
2018-12-14T00:13:11.097Z,5.10
2018-12-14T00:15:50.279Z,4.63
2018-12-14T00:18:35.344Z,5.03
2018-12-14T00:21:11.318Z,5.23
2018-12-14T00:23:47.941Z,4.47
2018-12-14T00:26:21.815Z,4.60
2018-12-14T00:29:02.172Z,4.83
2018-12-14T00:31:38.021Z,4.40
2018-12-14T00:34:20.478Z,5.00
2018-12-14T00:36:54.612Z,5.23
2018-12-14T00:39:30.637Z,4.83
2018-12-14T00:42:01.527Z,4.30
2018-12-14T00:44:37.982Z,4.87
2018-12-14T00:47:13.929Z,4.83
2018-12-14T00:52:45.156Z,4.50
2018-12-14T00:55:19.427Z,4.90
2018-12-14T00:57:54.855Z,5.03
2018-12-14T01:00:30.641Z,4.97
2018-12-14T01:03:04.376Z,4.87
2018-12-14T01:05:39.976Z,5.00
2018-12-14T01:08:15.645Z,4.83
2018-12-14T01:10:52.326Z,5.00
2018-12-14T01:13:26.617Z,4.80
2018-12-14T01:16:08.023Z,5.03
2018-12-14T01:18:55.170Z,4.97
2018-12-14T01:21:32.323Z,4.83
2018-12-14T01:24:08.152Z,4.90
2018-12-14T01:26:41.917Z,4.40
2018-12-14T01:29:22.348Z,4.83
2018-12-14T01:32:02.930Z,4.97
2018-12-14T01:34:38.998Z,4.80
2018-12-14T01:37:23.511Z,5.03
2018-12-14T01:39:57.681Z,4.83
2018-12-14T01:42:31.676Z,4.57
2018-12-14T01:45:18.717Z,5.40
2018-12-14T01:47:52.265Z,5.10
2018-12-14T01:50:28.018Z,4.80
2018-12-14T01:53:03.946Z,4.63
2018-12-14T01:55:41.899Z,4.60
2018-12-14T01:58:19.988Z,4.70
2018-12-14T02:00:55.643Z,5.17
2018-12-14T02:03:31.579Z,4.97
2018-12-14T02:06:05.546Z,5.13
2018-12-14T02:08:41.188Z,4.60
2018-12-14T02:11:21.896Z,4.67
2018-12-14T02:14:10.144Z,5.03
2018-12-14T02:16:54.183Z,5.20
2018-12-14T02:19:28.250Z,4.97
2018-12-14T02:22:03.884Z,5.17
2018-12-14T02:24:39.694Z,4.87
2018-12-14T02:27:13.740Z,5.40
2018-12-14T02:29:49.520Z,5.60
2018-12-14T02:32:29.220Z,4.57
2018-12-14T02:35:07.449Z,5.07
2018-12-14T02:37:41.397Z,5.00
2018-12-14T02:40:23.124Z,5.17
2018-12-14T02:42:58.791Z,5.07
2018-12-14T02:45:41.210Z,5.10
2018-12-14T02:48:28.467Z,5.37
2018-12-14T02:51:04.181Z,5.50
2018-12-14T02:53:42.243Z,5.00
2018-12-14T02:56:20.019Z,5.20
2018-12-14T02:58:53.784Z,5.60
2018-12-14T03:01:29.559Z,5.23
2018-12-14T03:04:16.601Z,5.57
2018-12-14T03:06:52.068Z,5.60
2018-12-14T03:09:29.626Z,5.80
2018-12-14T03:12:05.452Z,5.30
2018-12-14T03:14:48.347Z,5.70
2018-12-14T03:17:26.237Z,4.87
2018-12-14T03:20:04.971Z,5.00
2018-12-14T03:22:40.769Z,5.10
2018-12-14T03:28:11.147Z,5.90
2018-12-14T03:30:44.954Z,5.20
2018-12-14T03:33:22.378Z,5.10
2018-12-14T03:35:52.936Z,5.07
2018-12-14T03:38:29.605Z,5.17
2018-12-14T03:41:05.319Z,5.33
2018-12-14T03:43:41.436Z,5.10
2018-12-14T03:46:25.802Z,5.60
2018-12-14T03:49:01.868Z,5.30
2018-12-14T03:51:39.852Z,6.17
2018-12-14T03:54:10.621Z,5.80
2018-12-14T03:56:54.778Z,5.37
2018-12-14T03:59:30.659Z,5.63
2018-12-14T04:02:06.316Z,5.67
2018-12-14T04:04:41.903Z,4.90
2018-12-14T04:07:21.589Z,5.10
2018-12-14T04:10:00.928Z,5.70
2018-12-14T04:12:47.948Z,5.57
2018-12-14T04:15:26.021Z,5.67
2018-12-14T04:17:59.755Z,5.70
2018-12-14T04:20:37.423Z,5.20
2018-12-14T04:23:24.258Z,5.73
2018-12-14T04:25:57.730Z,5.10
2018-12-14T04:28:38.309Z,5.70
2018-12-14T04:31:14.389Z,5.67
2018-12-14T04:33:48.508Z,5.57
2018-12-14T04:36:23.915Z,5.37
2018-12-14T04:39:01.677Z,5.57
2018-12-14T04:41:35.368Z,5.57
2018-12-14T04:44:09.111Z,6.33
2018-12-14T04:46:47.048Z,6.10
2018-12-14T04:49:23.135Z,5.47
2018-12-14T04:51:53.863Z,5.47
2018-12-14T04:54:29.320Z,5.73
2018-12-14T04:57:05.396Z,6.10
2018-12-14T04:59:41.709Z,6.00
2018-12-14T05:02:19.472Z,5.50
2018-12-14T05:04:55.424Z,5.90
2018-12-14T05:07:42.520Z,5.73
2018-12-14T05:10:17.970Z,6.00
2018-12-14T05:12:56.189Z,5.87
2018-12-14T05:15:31.564Z,6.07
2018-12-14T05:18:05.264Z,5.67
2018-12-14T05:20:41.043Z,6.33
2018-12-14T05:23:22.139Z,5.90
2018-12-14T05:26:01.088Z,5.80
2018-12-14T05:28:34.528Z,6.47
2018-12-14T05:31:11.965Z,5.70
2018-12-14T05:33:48.617Z,5.90
2018-12-14T05:36:26.929Z,6.17
2018-12-14T05:39:06.280Z,6.23
2018-12-14T05:41:45.760Z,5.97
2018-12-14T05:44:24.624Z,5.93
2018-12-14T05:47:02.399Z,5.90
2018-12-14T05:49:36.978Z,6.40
2018-12-14T05:52:12.743Z,5.83
2018-12-14T05:54:48.684Z,6.40
2018-12-14T05:57:24.452Z,6.53
2018-12-14T06:00:00.244Z,5.63
2018-12-14T06:02:33.894Z,6.20
2018-12-14T06:05:09.515Z,6.03
2018-12-14T06:07:43.372Z,6.20
2018-12-14T06:10:19.216Z,5.70
2018-12-14T06:12:53.109Z,6.10
2018-12-14T06:15:31.120Z,6.77
2018-12-14T06:18:10.843Z,6.30
2018-12-14T06:20:47.700Z,5.77
2018-12-14T06:23:32.228Z,6.53
2018-12-14T06:31:16.541Z,6.00
2018-12-14T06:33:52.215Z,6.43
2018-12-14T06:36:26.416Z,6.23
2018-12-14T06:39:01.881Z,5.90
2018-12-14T06:41:38.579Z,6.40
2018-12-14T06:44:22.933Z,6.63
2018-12-14T06:46:54.257Z,6.30
2018-12-14T06:49:37.301Z,6.70
2018-12-14T06:52:12.155Z,6.50
2018-12-14T06:57:35.468Z,6.43
2018-12-14T07:00:11.209Z,6.57
2018-12-14T07:02:46.780Z,6.30
2018-12-14T07:05:22.524Z,6.13
2018-12-14T07:08:00.313Z,6.17
2018-12-14T07:10:34.256Z,6.33
2018-12-14T07:13:09.963Z,5.90
2018-12-14T07:15:46.057Z,5.50
2018-12-14T07:18:21.782Z,5.50
2018-12-14T07:20:52.984Z,6.33
2018-12-14T07:23:28.549Z,6.50
2018-12-14T07:26:12.871Z,6.20
2018-12-14T07:28:49.897Z,6.77
2018-12-14T07:31:28.026Z,6.30
2018-12-14T07:34:04.935Z,5.93
2018-12-14T07:36:40.699Z,6.23
2018-12-14T07:39:15.587Z,5.70
2018-12-14T07:41:51.336Z,5.73
2018-12-14T07:44:25.365Z,6.60
2018-12-14T07:47:00.908Z,6.10
2018-12-14T07:49:36.696Z,6.27
2018-12-14T07:52:11.501Z,6.60
2018-12-14T07:54:49.332Z,5.83
2018-12-14T07:57:26.657Z,6.73
2018-12-14T08:00:10.587Z,6.10
2018-12-14T08:02:44.788Z,6.03
2018-12-14T08:05:20.447Z,6.57
2018-12-14T08:07:56.224Z,6.30
2018-12-14T08:10:36.708Z,6.13
2018-12-14T08:13:14.061Z,6.13
2018-12-14T08:15:48.522Z,6.00
2018-12-14T08:18:24.502Z,5.20
2018-12-14T08:20:58.458Z,5.80
2018-12-14T08:23:32.336Z,6.00
2018-12-14T08:26:08.070Z,6.17
2018-12-14T08:28:41.949Z,6.13
2018-12-14T08:31:17.647Z,5.67
2018-12-14T08:33:55.627Z,6.10
2018-12-14T08:36:31.264Z,5.90
2018-12-14T08:39:06.928Z,5.70
2018-12-14T08:41:42.678Z,6.10
2018-12-14T08:44:18.436Z,6.70
2018-12-14T08:46:54.475Z,6.37
2018-12-14T08:49:30.367Z,6.20
2018-12-14T08:52:08.125Z,5.87
2018-12-14T08:54:43.703Z,5.83
2018-12-14T08:57:17.779Z,6.17
2018-12-14T08:59:51.547Z,6.60
2018-12-14T09:02:27.284Z,6.03
2018-12-14T09:05:03.194Z,5.93
2018-12-14T09:07:36.942Z,5.67
2018-12-14T09:10:12.808Z,5.53
2018-12-14T09:12:47.920Z,5.47
2018-12-14T09:15:31.520Z,5.53
2018-12-14T09:18:08.270Z,6.40
2018-12-14T09:20:44.243Z,6.20
2018-12-14T09:23:19.979Z,5.70
2018-12-14T09:25:53.860Z,5.77
2018-12-14T09:28:29.612Z,5.53
2018-12-14T09:31:16.558Z,6.10
2018-12-14T09:33:52.021Z,5.70
2018-12-14T09:36:29.438Z,5.40
2018-12-14T09:39:11.989Z,5.43
2018-12-14T09:41:47.940Z,6.03
2018-12-14T09:44:26.150Z,5.63
2018-12-14T09:47:01.989Z,6.10
2018-12-14T09:49:37.656Z,5.50
2018-12-14T09:52:13.403Z,5.20
2018-12-14T09:54:47.285Z,6.07
2018-12-14T09:57:32.089Z,5.70
2018-12-14T10:00:08.097Z,5.43
2018-12-14T10:02:42.032Z,5.97
2018-12-14T10:05:17.718Z,5.80
2018-12-14T10:07:53.757Z,5.90
2018-12-14T10:10:27.918Z,6.27
2018-12-14T10:13:05.672Z,6.00
2018-12-14T10:15:41.434Z,5.17
2018-12-14T10:18:15.387Z,5.87
2018-12-14T10:20:53.264Z,5.90
2018-12-14T10:23:31.151Z,5.80
2018-12-14T10:26:06.929Z,5.93
2018-12-14T10:28:42.976Z,5.90
2018-12-14T10:31:18.631Z,5.77
2018-12-14T10:33:54.410Z,5.97
2018-12-14T10:36:28.496Z,5.83
2018-12-14T10:39:02.303Z,5.13
2018-12-14T10:41:38.936Z,6.40
2018-12-14T10:44:16.861Z,5.50
2018-12-14T10:46:51.292Z,5.50
2018-12-14T10:49:27.088Z,6.30
2018-12-14T10:52:02.969Z,5.20
2018-12-14T10:54:38.902Z,5.90
2018-12-14T10:57:17.115Z,5.57
2018-12-14T10:59:50.481Z,5.03
2018-12-14T11:02:26.359Z,5.67
2018-12-14T11:05:00.352Z,5.50
2018-12-14T11:07:34.356Z,5.57
2018-12-14T11:10:10.260Z,5.60
2018-12-14T11:12:44.287Z,5.87
2018-12-14T11:15:20.192Z,5.77
2018-12-14T11:17:54.038Z,5.00
2018-12-14T11:20:27.995Z,5.70
2018-12-14T11:23:03.518Z,5.17
2018-12-14T11:25:44.832Z,5.60
2018-12-14T11:28:25.268Z,5.53
2018-12-14T11:31:03.121Z,5.77
2018-12-14T11:33:37.053Z,5.83
2018-12-14T11:36:21.289Z,5.27
2018-12-14T11:38:55.414Z,5.33
2018-12-14T11:41:31.038Z,4.80
2018-12-14T11:44:06.598Z,5.10
2018-12-14T11:46:51.189Z,4.83
2018-12-14T11:49:28.339Z,5.53
2018-12-14T11:52:00.143Z,5.57
2018-12-14T11:54:33.863Z,5.37
2018-12-14T11:57:18.295Z,5.20
2018-12-14T11:59:59.093Z,5.40
2018-12-14T12:02:33.159Z,5.40
2018-12-14T12:05:08.701Z,5.20
2018-12-14T12:07:46.521Z,5.57
2018-12-14T12:10:22.375Z,5.60
2018-12-14T12:12:57.926Z,5.43
2018-12-14T12:15:33.931Z,5.70
2018-12-14T12:18:10.257Z,5.13
2018-12-14T12:20:41.367Z,4.87
2018-12-14T12:23:16.694Z,5.47
2018-12-14T12:25:52.944Z,5.20
2018-12-14T12:28:33.647Z,5.27
2018-12-14T12:31:07.724Z,5.33
2018-12-14T12:33:43.367Z,5.67
2018-12-14T12:36:14.535Z,5.57
2018-12-14T12:38:48.027Z,5.77
2018-12-14T12:41:21.659Z,6.73
2018-12-14T12:43:57.326Z,5.87
2018-12-14T12:46:36.701Z,6.30
2018-12-14T12:49:17.467Z,6.93
2018-12-14T12:51:53.519Z,8.27
2018-12-14T12:54:29.291Z,8.70
2018-12-14T12:57:09.820Z,8.07
2018-12-14T12:59:45.855Z,6.73
2018-12-14T13:02:27.192Z,6.53
2018-12-14T13:05:02.449Z,6.63
2018-12-14T13:07:36.440Z,6.70
2018-12-14T13:10:12.084Z,7.07
2018-12-14T13:12:47.846Z,7.20
2018-12-14T13:15:19.148Z,7.00
2018-12-14T13:17:56.324Z,6.50
2018-12-14T13:20:33.836Z,7.17
2018-12-14T13:23:10.136Z,6.53
2018-12-14T13:25:45.880Z,6.57
2018-12-14T13:28:20.312Z,6.63
2018-12-14T13:30:55.816Z,6.50
2018-12-14T13:33:31.595Z,6.60
2018-12-14T13:36:05.375Z,5.70
2018-12-14T13:38:41.140Z,6.13
2018-12-14T13:41:17.930Z,6.17
2018-12-14T13:43:53.839Z,6.60
2018-12-14T13:46:29.728Z,5.60
2018-12-14T13:49:14.180Z,6.73
2018-12-14T13:51:50.257Z,5.90
2018-12-14T13:54:24.239Z,5.97
2018-12-14T13:57:06.320Z,6.00
2018-12-14T13:59:44.183Z,6.23
2018-12-14T14:02:17.955Z,6.30
2018-12-14T14:04:53.746Z,6.10
2018-12-14T14:07:35.595Z,6.23
2018-12-14T14:10:06.788Z,6.40
2018-12-14T14:12:40.260Z,6.27
2018-12-14T14:15:20.932Z,5.83
2018-12-14T14:17:49.201Z,6.10
2018-12-14T14:20:28.327Z,6.37
2018-12-14T14:23:10.785Z,6.33
2018-12-14T14:25:44.928Z,6.83
2018-12-14T14:28:20.485Z,6.17
2018-12-14T14:31:01.039Z,6.10
2018-12-14T14:33:45.793Z,6.33
2018-12-14T14:36:29.994Z,6.30
2018-12-14T14:39:06.354Z,6.53
2018-12-14T14:41:39.692Z,6.40
2018-12-14T14:44:15.680Z,6.53
2018-12-14T14:46:53.433Z,6.70
2018-12-14T14:57:15.521Z,6.60
2018-12-14T15:00:00.023Z,5.70
2018-12-14T15:02:34.008Z,7.10
2018-12-14T15:05:13.815Z,6.67
2018-12-14T15:13:00.240Z,6.90
2018-12-14T15:15:36.787Z,7.10
2018-12-14T15:18:13.662Z,6.97
2018-12-14T15:20:47.523Z,6.37
2018-12-14T15:23:23.178Z,6.83
2018-12-14T15:25:59.027Z,6.60
2018-12-14T15:28:34.950Z,6.97
2018-12-14T15:31:08.706Z,6.47
2018-12-14T15:33:44.411Z,6.43
2018-12-14T15:36:26.938Z,6.23
2018-12-14T15:39:01.114Z,6.67
2018-12-14T15:41:35.069Z,6.60
2018-12-14T15:44:10.624Z,7.33
2018-12-14T15:46:46.389Z,6.57
2018-12-14T15:49:22.172Z,7.10
2018-12-14T15:51:56.220Z,6.30
2018-12-14T15:54:30.133Z,6.73
2018-12-14T15:57:08.070Z,6.30
2018-12-14T15:59:45.866Z,7.17
2018-12-14T16:05:03.604Z,7.43
2018-12-14T16:07:39.350Z,6.80
2018-12-14T16:10:15.223Z,7.07
2018-12-14T16:12:48.964Z,7.20
2018-12-14T16:15:24.736Z,6.77
2018-12-14T16:20:36.386Z,6.57
2018-12-14T16:23:16.856Z,6.97
2018-12-14T16:25:52.080Z,7.17
2018-12-14T16:28:30.476Z,6.90
2018-12-14T16:31:07.640Z,6.93
2018-12-14T16:33:54.932Z,7.30
2018-12-14T16:36:39.425Z,7.27
2018-12-14T16:39:15.561Z,6.53
2018-12-14T16:41:51.334Z,6.70
2018-12-14T16:44:25.320Z,6.93
2018-12-14T16:47:01.158Z,6.70
2018-12-14T16:49:35.046Z,7.13
2018-12-14T16:52:08.816Z,6.50
2018-12-14T16:54:44.479Z,6.50
2018-12-14T16:57:28.911Z,6.53
2018-12-14T17:00:05.750Z,6.53
2018-12-14T17:02:39.903Z,7.07
2018-12-14T17:05:15.592Z,6.23
2018-12-14T17:10:33.955Z,7.23
2018-12-14T17:13:09.212Z,6.97
2018-12-14T17:18:26.686Z,6.90
2018-12-14T17:21:04.666Z,6.93
2018-12-14T17:29:00.192Z,6.10
2018-12-14T17:34:27.609Z,6.53
2018-12-14T17:37:03.260Z,7.77
2018-12-14T17:39:48.844Z,7.10
2018-12-14T17:42:20.136Z,6.77
2018-12-14T17:45:02.329Z,6.97
2018-12-14T17:47:46.256Z,7.43
2018-12-14T17:50:22.313Z,7.33
2018-12-14T17:52:56.080Z,7.23
2018-12-14T17:55:31.756Z,6.37
2018-12-14T17:58:09.345Z,6.40
2018-12-14T18:00:45.033Z,6.13
2018-12-14T18:03:20.755Z,6.60
2018-12-14T18:06:01.265Z,6.67
2018-12-14T18:08:40.996Z,6.40
2018-12-14T18:11:18.179Z,6.83
2018-12-14T18:13:54.184Z,6.70
2018-12-14T18:16:31.919Z,6.73
2018-12-14T18:19:02.967Z,6.30
2018-12-14T18:21:40.448Z,7.70
2018-12-14T18:24:14.310Z,6.30
2018-12-14T18:26:49.896Z,6.47
2018-12-14T18:29:25.701Z,6.70
2018-12-14T18:32:01.721Z,6.73
2018-12-14T18:34:46.145Z,6.60
2018-12-14T18:37:26.768Z,6.57
2018-12-14T18:40:00.616Z,6.10
2018-12-14T18:42:36.379Z,6.17
2018-12-14T18:45:14.305Z,5.80
2018-12-14T18:47:50.165Z,6.13
2018-12-14T18:50:26.420Z,5.93
2018-12-14T18:53:00.367Z,6.20
2018-12-14T18:55:36.128Z,5.90
2018-12-14T18:58:13.909Z,5.93
2018-12-14T19:00:45.099Z,5.97
2018-12-14T19:03:25.024Z,5.53
2018-12-14T19:05:59.567Z,5.87
2018-12-14T19:08:35.484Z,5.77
2018-12-14T19:11:18.096Z,5.70
2018-12-14T19:13:57.047Z,5.77
2018-12-14T19:16:33.003Z,5.60
2018-12-14T19:19:06.832Z,5.43
2018-12-14T19:21:40.595Z,5.53
2018-12-14T19:24:24.223Z,5.67
2018-12-14T19:27:09.551Z,5.47
2018-12-14T19:29:45.400Z,5.53
2018-12-14T19:32:23.533Z,5.43
2018-12-14T19:35:01.789Z,5.37
2018-12-14T19:37:37.464Z,5.27
2018-12-14T19:40:13.356Z,5.00
2018-12-14T19:42:48.775Z,5.20
2018-12-14T19:45:24.511Z,5.20
2018-12-14T19:48:06.159Z,5.20
2018-12-14T19:50:39.420Z,5.50
2018-12-14T19:53:27.261Z,5.37
2018-12-14T19:56:02.807Z,5.33
2018-12-14T19:58:40.328Z,5.03
2018-12-14T20:01:17.745Z,5.60
2018-12-14T20:03:47.887Z,6.27
2018-12-14T20:06:34.323Z,5.77
2018-12-14T20:09:09.608Z,5.80
2018-12-14T20:11:45.593Z,5.70
2018-12-14T20:14:19.298Z,5.10
2018-12-14T20:16:52.862Z,5.57
2018-12-14T20:19:34.216Z,5.00
2018-12-14T20:22:08.060Z,5.30
2018-12-14T20:24:42.789Z,5.57
2018-12-14T20:27:20.454Z,5.13
2018-12-14T20:29:56.308Z,5.50
2018-12-14T20:32:32.157Z,5.17
2018-12-14T20:35:23.008Z,5.43
2018-12-14T20:37:57.133Z,4.97
2018-12-14T20:40:32.750Z,4.60
2018-12-14T20:43:10.587Z,5.40
2018-12-14T20:45:48.020Z,5.17
2018-12-14T20:48:23.855Z,5.13
2018-12-14T20:51:04.576Z,4.97
2018-12-14T20:53:37.815Z,4.87
2018-12-14T20:56:15.608Z,5.00
2018-12-14T20:58:51.673Z,4.80
2018-12-14T21:01:26.239Z,5.10
2018-12-14T21:04:04.481Z,4.73
2018-12-14T21:06:41.584Z,4.80
2018-12-14T21:09:15.528Z,5.20
2018-12-14T21:11:51.283Z,4.83
2018-12-14T21:14:27.425Z,4.70
2018-12-14T21:17:01.435Z,4.90
2018-12-14T21:19:35.674Z,5.37
2018-12-14T21:22:11.702Z,5.07
2018-12-14T21:24:53.922Z,4.47
2018-12-14T21:27:28.207Z,5.10
2018-12-14T21:30:06.860Z,5.03
2018-12-14T21:32:40.949Z,5.00
2018-12-14T21:35:15.482Z,4.70
2018-12-14T21:37:51.076Z,4.40
2018-12-14T21:40:25.175Z,4.70
2018-12-14T21:43:00.825Z,4.60
2018-12-14T21:45:37.570Z,4.07
2018-12-14T21:48:13.256Z,4.80
2018-12-14T21:50:49.169Z,4.73
2018-12-14T21:53:25.125Z,4.63
2018-12-14T21:56:09.226Z,4.83
2018-12-14T21:58:46.755Z,4.47
2018-12-14T22:01:22.685Z,4.57
2018-12-14T22:03:58.449Z,4.67
2018-12-14T22:06:40.985Z,4.80
2018-12-14T22:09:15.121Z,4.77
2018-12-14T22:11:50.569Z,4.77
2018-12-14T22:14:27.041Z,4.57
2018-12-14T22:17:04.572Z,4.67
2018-12-14T22:19:38.305Z,5.37
2018-12-14T22:22:12.991Z,4.63
2018-12-14T22:24:50.863Z,4.73
2018-12-14T22:27:29.065Z,4.27
2018-12-14T22:30:05.560Z,4.73
2018-12-14T22:32:43.149Z,4.37
2018-12-14T22:35:18.919Z,4.43
2018-12-14T22:37:57.269Z,4.43
2018-12-14T22:40:41.984Z,4.60
2018-12-14T22:43:20.463Z,4.93
2018-12-14T22:46:04.679Z,4.67
2018-12-14T22:48:38.731Z,5.00
2018-12-14T22:51:14.193Z,4.33
2018-12-14T22:53:47.980Z,4.43
2018-12-14T22:56:25.845Z,4.23
2018-12-14T22:59:04.080Z,4.97
2018-12-14T23:01:51.272Z,4.60
2018-12-14T23:04:28.865Z,4.37
2018-12-14T23:07:03.836Z,4.57
2018-12-14T23:09:50.997Z,4.63
2018-12-14T23:12:26.448Z,4.50
2018-12-14T23:15:02.329Z,4.07
2018-12-14T23:17:38.197Z,4.20
2018-12-14T23:20:12.222Z,4.67
2018-12-14T23:22:47.904Z,4.83
2018-12-14T23:25:23.773Z,4.53
2018-12-14T23:27:59.781Z,4.33
2018-12-14T23:30:35.409Z,4.37
2018-12-14T23:33:09.312Z,4.43
2018-12-14T23:35:49.600Z,4.50
2018-12-14T23:38:23.791Z,4.20
2018-12-14T23:40:57.653Z,4.30
2018-12-14T23:43:39.096Z,4.43
2018-12-14T23:46:19.672Z,4.50
2018-12-14T23:48:56.042Z,4.33
2018-12-14T23:51:29.710Z,4.83
2018-12-14T23:54:05.801Z,4.20
2018-12-14T23:56:41.584Z,4.17
2018-12-14T23:59:20.062Z,4.53
